sensor_id;sensor_type;location;lat;lon;timestamp;P1;durP1;ratioP1;P2;durP2;ratioP2
50495;SDS011;38806;51.554;5.704;2023-03-01T00:01:47;21.70;;;13.13;;
50495;SDS011;38806;51.554;5.704;2023-03-01T00:03:48;28.98;;;16.90;;
50495;SDS011;38806;51.554;5.704;2023-03-01T00:05:48;27.75;;;13.02;;
50495;SDS011;38806;51.554;5.704;2023-03-01T00:07:51;27.17;;;15.75;;
50495;SDS011;38806;51.554;5.704;2023-03-01T00:09:52;26.85;;;15.32;;
50495;SDS011;38806;51.554;5.704;2023-03-01T00:11:52;24.67;;;13.65;;
50495;SDS011;38806;51.554;5.704;2023-03-01T00:13:53;21.05;;;13.35;;
50495;SDS011;38806;51.554;5.704;2023-03-01T00:15:54;23.05;;;12.00;;
50495;SDS011;38806;51.554;5.704;2023-03-01T00:17:54;26.15;;;13.27;;
50495;SDS011;38806;51.554;5.704;2023-03-01T00:19:54;22.58;;;10.52;;
50495;SDS011;38806;51.554;5.704;2023-03-01T00:21:54;19.48;;;10.27;;
50495;SDS011;38806;51.554;5.704;2023-03-01T00:23:54;22.30;;;11.02;;
50495;SDS011;38806;51.554;5.704;2023-03-01T00:25:55;24.60;;;12.15;;
50495;SDS011;38806;51.554;5.704;2023-03-01T00:27:55;20.35;;;13.00;;
50495;SDS011;38806;51.554;5.704;2023-03-01T00:29:55;18.33;;;10.48;;
50495;SDS011;38806;51.554;5.704;2023-03-01T00:31:55;18.02;;;11.35;;
50495;SDS011;38806;51.554;5.704;2023-03-01T00:33:57;24.15;;;10.82;;
50495;SDS011;38806;51.554;5.704;2023-03-01T00:35:58;22.23;;;11.45;;
50495;SDS011;38806;51.554;5.704;2023-03-01T00:37:58;18.75;;;10.82;;
50495;SDS011;38806;51.554;5.704;2023-03-01T00:39:58;18.65;;;10.10;;
50495;SDS011;38806;51.554;5.704;2023-03-01T00:41:59;18.40;;;9.68;;
50495;SDS011;38806;51.554;5.704;2023-03-01T00:43:59;21.65;;;10.48;;
50495;SDS011;38806;51.554;5.704;2023-03-01T00:46:00;16.65;;;9.90;;
50495;SDS011;38806;51.554;5.704;2023-03-01T00:48:01;19.52;;;9.38;;
50495;SDS011;38806;51.554;5.704;2023-03-01T00:50:01;24.58;;;11.30;;
50495;SDS011;38806;51.554;5.704;2023-03-01T00:52:01;16.08;;;9.38;;
50495;SDS011;38806;51.554;5.704;2023-03-01T00:54:02;16.08;;;9.05;;
50495;SDS011;38806;51.554;5.704;2023-03-01T00:56:02;18.30;;;9.80;;
50495;SDS011;38806;51.554;5.704;2023-03-01T00:58:03;19.92;;;10.38;;
50495;SDS011;38806;51.554;5.704;2023-03-01T01:00:04;18.70;;;10.70;;
50495;SDS011;38806;51.554;5.704;2023-03-01T01:02:04;17.52;;;10.30;;
50495;SDS011;38806;51.554;5.704;2023-03-01T01:04:08;20.50;;;11.10;;
50495;SDS011;38806;51.554;5.704;2023-03-01T01:06:13;20.27;;;10.52;;
50495;SDS011;38806;51.554;5.704;2023-03-01T01:08:13;22.33;;;11.90;;
50495;SDS011;38806;51.554;5.704;2023-03-01T01:10:13;23.38;;;11.38;;
50495;SDS011;38806;51.554;5.704;2023-03-01T01:12:16;17.50;;;10.30;;
50495;SDS011;38806;51.554;5.704;2023-03-01T01:14:17;21.38;;;10.98;;
50495;SDS011;38806;51.554;5.704;2023-03-01T01:16:18;20.30;;;10.25;;
50495;SDS011;38806;51.554;5.704;2023-03-01T01:18:18;19.08;;;10.73;;
50495;SDS011;38806;51.554;5.704;2023-03-01T01:20:18;18.38;;;10.80;;
50495;SDS011;38806;51.554;5.704;2023-03-01T01:22:18;16.10;;;9.23;;
50495;SDS011;38806;51.554;5.704;2023-03-01T01:24:18;17.98;;;10.80;;
50495;SDS011;38806;51.554;5.704;2023-03-01T01:26:20;19.05;;;9.60;;
50495;SDS011;38806;51.554;5.704;2023-03-01T01:28:21;17.23;;;8.73;;
50495;SDS011;38806;51.554;5.704;2023-03-01T01:30:21;20.27;;;9.88;;
50495;SDS011;38806;51.554;5.704;2023-03-01T01:32:22;18.77;;;10.15;;
50495;SDS011;38806;51.554;5.704;2023-03-01T01:34:22;19.58;;;9.57;;
50495;SDS011;38806;51.554;5.704;2023-03-01T01:36:22;20.13;;;10.48;;
50495;SDS011;38806;51.554;5.704;2023-03-01T01:38:22;15.27;;;8.95;;
50495;SDS011;38806;51.554;5.704;2023-03-01T01:40:23;21.60;;;11.00;;
50495;SDS011;38806;51.554;5.704;2023-03-01T01:42:23;17.27;;;8.07;;
50495;SDS011;38806;51.554;5.704;2023-03-01T01:44:24;17.90;;;9.20;;
50495;SDS011;38806;51.554;5.704;2023-03-01T01:48:27;15.60;;;8.90;;
50495;SDS011;38806;51.554;5.704;2023-03-01T01:50:40;13.82;;;9.13;;
50495;SDS011;38806;51.554;5.704;2023-03-01T01:52:40;21.48;;;8.95;;
50495;SDS011;38806;51.554;5.704;2023-03-01T01:54:45;16.95;;;8.85;;
50495;SDS011;38806;51.554;5.704;2023-03-01T01:56:48;19.33;;;10.10;;
50495;SDS011;38806;51.554;5.704;2023-03-01T01:58:49;17.35;;;9.88;;
50495;SDS011;38806;51.554;5.704;2023-03-01T02:00:50;15.30;;;9.25;;
50495;SDS011;38806;51.554;5.704;2023-03-01T02:02:53;15.20;;;10.13;;
50495;SDS011;38806;51.554;5.704;2023-03-01T02:07:15;21.67;;;10.70;;
50495;SDS011;38806;51.554;5.704;2023-03-01T02:09:15;18.30;;;9.57;;
50495;SDS011;38806;51.554;5.704;2023-03-01T02:11:16;15.73;;;9.82;;
50495;SDS011;38806;51.554;5.704;2023-03-01T02:13:17;18.50;;;10.30;;
50495;SDS011;38806;51.554;5.704;2023-03-01T02:15:17;19.10;;;10.25;;
50495;SDS011;38806;51.554;5.704;2023-03-01T02:17:17;20.42;;;11.23;;
50495;SDS011;38806;51.554;5.704;2023-03-01T02:21:38;18.10;;;9.80;;
50495;SDS011;38806;51.554;5.704;2023-03-01T02:23:42;14.93;;;10.02;;
50495;SDS011;38806;51.554;5.704;2023-03-01T02:29:58;18.20;;;10.65;;
50495;SDS011;38806;51.554;5.704;2023-03-01T02:31:59;17.58;;;9.60;;
50495;SDS011;38806;51.554;5.704;2023-03-01T02:34:01;19.35;;;9.48;;
50495;SDS011;38806;51.554;5.704;2023-03-01T02:36:08;19.95;;;10.93;;
50495;SDS011;38806;51.554;5.704;2023-03-01T02:38:11;21.13;;;11.18;;
50495;SDS011;38806;51.554;5.704;2023-03-01T02:40:13;18.00;;;11.10;;
50495;SDS011;38806;51.554;5.704;2023-03-01T02:42:18;18.77;;;10.52;;
50495;SDS011;38806;51.554;5.704;2023-03-01T02:44:20;23.05;;;11.25;;
50495;SDS011;38806;51.554;5.704;2023-03-01T02:46:22;19.48;;;10.10;;
50495;SDS011;38806;51.554;5.704;2023-03-01T02:48:23;23.20;;;11.93;;
50495;SDS011;38806;51.554;5.704;2023-03-01T02:52:48;21.08;;;11.68;;
50495;SDS011;38806;51.554;5.704;2023-03-01T02:54:58;17.13;;;8.93;;
50495;SDS011;38806;51.554;5.704;2023-03-01T02:56:59;19.45;;;11.30;;
50495;SDS011;38806;51.554;5.704;2023-03-01T02:59:00;19.05;;;11.50;;
50495;SDS011;38806;51.554;5.704;2023-03-01T03:01:00;20.45;;;11.18;;
50495;SDS011;38806;51.554;5.704;2023-03-01T03:03:01;23.02;;;12.57;;
50495;SDS011;38806;51.554;5.704;2023-03-01T03:05:05;23.33;;;11.82;;
50495;SDS011;38806;51.554;5.704;2023-03-01T03:07:08;21.52;;;12.63;;
50495;SDS011;38806;51.554;5.704;2023-03-01T03:09:08;26.77;;;12.45;;
50495;SDS011;38806;51.554;5.704;2023-03-01T03:11:08;23.08;;;13.48;;
50495;SDS011;38806;51.554;5.704;2023-03-01T03:13:09;21.35;;;11.57;;
50495;SDS011;38806;51.554;5.704;2023-03-01T03:15:11;21.75;;;11.68;;
50495;SDS011;38806;51.554;5.704;2023-03-01T03:17:12;16.90;;;10.70;;
50495;SDS011;38806;51.554;5.704;2023-03-01T03:19:12;25.17;;;13.90;;
50495;SDS011;38806;51.554;5.704;2023-03-01T03:21:13;22.38;;;11.02;;
50495;SDS011;38806;51.554;5.704;2023-03-01T03:23:13;21.67;;;11.70;;
50495;SDS011;38806;51.554;5.704;2023-03-01T03:25:14;19.38;;;10.98;;
50495;SDS011;38806;51.554;5.704;2023-03-01T03:27:14;17.30;;;10.10;;
50495;SDS011;38806;51.554;5.704;2023-03-01T03:29:15;17.42;;;12.13;;
50495;SDS011;38806;51.554;5.704;2023-03-01T03:31:15;20.50;;;11.45;;
50495;SDS011;38806;51.554;5.704;2023-03-01T03:33:15;18.35;;;10.80;;
50495;SDS011;38806;51.554;5.704;2023-03-01T03:35:15;19.13;;;10.73;;
50495;SDS011;38806;51.554;5.704;2023-03-01T03:37:15;16.80;;;10.82;;
50495;SDS011;38806;51.554;5.704;2023-03-01T03:39:34;19.13;;;9.18;;
50495;SDS011;38806;51.554;5.704;2023-03-01T03:41:35;20.35;;;9.80;;
50495;SDS011;38806;51.554;5.704;2023-03-01T03:43:36;20.38;;;11.90;;
50495;SDS011;38806;51.554;5.704;2023-03-01T03:45:36;22.15;;;12.45;;
50495;SDS011;38806;51.554;5.704;2023-03-01T03:47:36;18.63;;;10.27;;
50495;SDS011;38806;51.554;5.704;2023-03-01T03:49:37;20.83;;;10.48;;
50495;SDS011;38806;51.554;5.704;2023-03-01T03:51:37;18.40;;;9.63;;
50495;SDS011;38806;51.554;5.704;2023-03-01T03:53:37;21.88;;;11.73;;
50495;SDS011;38806;51.554;5.704;2023-03-01T03:55:37;23.10;;;12.95;;
50495;SDS011;38806;51.554;5.704;2023-03-01T03:57:39;19.23;;;12.32;;
50495;SDS011;38806;51.554;5.704;2023-03-01T03:59:40;19.95;;;11.82;;
50495;SDS011;38806;51.554;5.704;2023-03-01T04:01:40;21.48;;;11.88;;
50495;SDS011;38806;51.554;5.704;2023-03-01T04:03:40;20.92;;;12.30;;
50495;SDS011;38806;51.554;5.704;2023-03-01T04:05:41;19.35;;;12.13;;
50495;SDS011;38806;51.554;5.704;2023-03-01T04:07:42;23.02;;;13.90;;
50495;SDS011;38806;51.554;5.704;2023-03-01T04:09:43;26.90;;;12.57;;
50495;SDS011;38806;51.554;5.704;2023-03-01T04:11:43;25.10;;;11.63;;
50495;SDS011;38806;51.554;5.704;2023-03-01T04:13:43;16.17;;;10.02;;
50495;SDS011;38806;51.554;5.704;2023-03-01T04:15:43;18.58;;;11.50;;
50495;SDS011;38806;51.554;5.704;2023-03-01T04:17:45;20.15;;;12.70;;
50495;SDS011;38806;51.554;5.704;2023-03-01T04:19:45;24.30;;;13.73;;
50495;SDS011;38806;51.554;5.704;2023-03-01T04:21:48;21.77;;;11.98;;
50495;SDS011;38806;51.554;5.704;2023-03-01T04:23:48;22.33;;;13.40;;
50495;SDS011;38806;51.554;5.704;2023-03-01T04:25:53;19.73;;;11.85;;
50495;SDS011;38806;51.554;5.704;2023-03-01T04:27:55;26.42;;;14.57;;
50495;SDS011;38806;51.554;5.704;2023-03-01T04:29:55;25.60;;;12.70;;
50495;SDS011;38806;51.554;5.704;2023-03-01T04:31:55;20.10;;;12.23;;
50495;SDS011;38806;51.554;5.704;2023-03-01T04:33:55;23.60;;;13.38;;
50495;SDS011;38806;51.554;5.704;2023-03-01T04:35:55;20.15;;;12.82;;
50495;SDS011;38806;51.554;5.704;2023-03-01T04:37:57;21.30;;;12.82;;
50495;SDS011;38806;51.554;5.704;2023-03-01T04:39:57;25.45;;;13.65;;
50495;SDS011;38806;51.554;5.704;2023-03-01T04:41:57;23.10;;;13.07;;
50495;SDS011;38806;51.554;5.704;2023-03-01T04:43:58;21.95;;;13.50;;
50495;SDS011;38806;51.554;5.704;2023-03-01T04:46:00;23.33;;;14.20;;
50495;SDS011;38806;51.554;5.704;2023-03-01T04:48:03;24.85;;;13.38;;
50495;SDS011;38806;51.554;5.704;2023-03-01T04:50:03;27.40;;;13.57;;
50495;SDS011;38806;51.554;5.704;2023-03-01T04:52:04;18.98;;;11.70;;
50495;SDS011;38806;51.554;5.704;2023-03-01T04:54:04;22.08;;;12.52;;
50495;SDS011;38806;51.554;5.704;2023-03-01T04:56:09;22.75;;;12.88;;
50495;SDS011;38806;51.554;5.704;2023-03-01T04:58:09;24.02;;;13.32;;
50495;SDS011;38806;51.554;5.704;2023-03-01T05:00:10;29.25;;;12.55;;
50495;SDS011;38806;51.554;5.704;2023-03-01T05:02:20;23.10;;;14.15;;
50495;SDS011;38806;51.554;5.704;2023-03-01T05:04:21;24.23;;;13.68;;
50495;SDS011;38806;51.554;5.704;2023-03-01T05:06:21;22.35;;;13.80;;
50495;SDS011;38806;51.554;5.704;2023-03-01T05:08:21;31.58;;;15.10;;
50495;SDS011;38806;51.554;5.704;2023-03-01T05:10:22;25.52;;;13.00;;
50495;SDS011;38806;51.554;5.704;2023-03-01T05:12:22;20.80;;;11.55;;
50495;SDS011;38806;51.554;5.704;2023-03-01T05:14:23;21.98;;;12.82;;
50495;SDS011;38806;51.554;5.704;2023-03-01T05:16:23;23.58;;;12.05;;
50495;SDS011;38806;51.554;5.704;2023-03-01T05:18:23;23.65;;;14.63;;
50495;SDS011;38806;51.554;5.704;2023-03-01T05:20:26;22.58;;;12.32;;
50495;SDS011;38806;51.554;5.704;2023-03-01T05:22:26;28.42;;;17.05;;
50495;SDS011;38806;51.554;5.704;2023-03-01T05:24:27;21.25;;;11.63;;
50495;SDS011;38806;51.554;5.704;2023-03-01T05:26:27;19.95;;;12.52;;
50495;SDS011;38806;51.554;5.704;2023-03-01T05:28:28;20.30;;;13.25;;
50495;SDS011;38806;51.554;5.704;2023-03-01T05:30:32;23.50;;;14.30;;
50495;SDS011;38806;51.554;5.704;2023-03-01T05:32:32;22.47;;;12.43;;
50495;SDS011;38806;51.554;5.704;2023-03-01T05:34:33;24.60;;;12.38;;
50495;SDS011;38806;51.554;5.704;2023-03-01T05:36:34;23.38;;;11.68;;
50495;SDS011;38806;51.554;5.704;2023-03-01T05:38:34;23.17;;;12.10;;
50495;SDS011;38806;51.554;5.704;2023-03-01T05:40:34;23.63;;;12.77;;
50495;SDS011;38806;51.554;5.704;2023-03-01T05:42:35;21.83;;;13.63;;
50495;SDS011;38806;51.554;5.704;2023-03-01T05:44:36;24.60;;;14.00;;
50495;SDS011;38806;51.554;5.704;2023-03-01T05:46:36;21.50;;;12.52;;
50495;SDS011;38806;51.554;5.704;2023-03-01T05:48:36;24.33;;;12.40;;
50495;SDS011;38806;51.554;5.704;2023-03-01T05:50:40;25.30;;;14.07;;
50495;SDS011;38806;51.554;5.704;2023-03-01T05:52:40;17.37;;;10.70;;
50495;SDS011;38806;51.554;5.704;2023-03-01T05:54:41;20.53;;;12.77;;
50495;SDS011;38806;51.554;5.704;2023-03-01T05:56:41;31.10;;;13.10;;
50495;SDS011;38806;51.554;5.704;2023-03-01T05:58:41;25.30;;;12.73;;
50495;SDS011;38806;51.554;5.704;2023-03-01T06:00:42;24.33;;;13.30;;
50495;SDS011;38806;51.554;5.704;2023-03-01T06:02:43;22.10;;;12.10;;
50495;SDS011;38806;51.554;5.704;2023-03-01T06:04:43;24.23;;;12.43;;
50495;SDS011;38806;51.554;5.704;2023-03-01T06:06:43;23.70;;;12.77;;
50495;SDS011;38806;51.554;5.704;2023-03-01T06:08:43;28.37;;;12.80;;
50495;SDS011;38806;51.554;5.704;2023-03-01T06:10:43;23.25;;;14.73;;
50495;SDS011;38806;51.554;5.704;2023-03-01T06:12:44;24.67;;;13.00;;
50495;SDS011;38806;51.554;5.704;2023-03-01T06:14:45;22.13;;;13.33;;
50495;SDS011;38806;51.554;5.704;2023-03-01T06:16:45;29.80;;;16.47;;
50495;SDS011;38806;51.554;5.704;2023-03-01T06:18:45;24.50;;;13.10;;
50495;SDS011;38806;51.554;5.704;2023-03-01T06:20:45;28.13;;;14.85;;
50495;SDS011;38806;51.554;5.704;2023-03-01T06:22:52;24.87;;;17.47;;
50495;SDS011;38806;51.554;5.704;2023-03-01T06:24:52;30.97;;;14.57;;
50495;SDS011;38806;51.554;5.704;2023-03-01T06:26:52;29.63;;;16.02;;
50495;SDS011;38806;51.554;5.704;2023-03-01T06:28:53;20.45;;;13.52;;
50495;SDS011;38806;51.554;5.704;2023-03-01T06:30:53;26.35;;;16.25;;
50495;SDS011;38806;51.554;5.704;2023-03-01T06:32:53;22.23;;;13.00;;
50495;SDS011;38806;51.554;5.704;2023-03-01T06:35:01;24.02;;;14.13;;
50495;SDS011;38806;51.554;5.704;2023-03-01T06:37:01;22.43;;;13.20;;
50495;SDS011;38806;51.554;5.704;2023-03-01T06:39:05;29.70;;;14.90;;
50495;SDS011;38806;51.554;5.704;2023-03-01T06:41:05;27.00;;;14.33;;
50495;SDS011;38806;51.554;5.704;2023-03-01T06:43:06;22.40;;;14.63;;
50495;SDS011;38806;51.554;5.704;2023-03-01T06:45:07;25.97;;;15.87;;
50495;SDS011;38806;51.554;5.704;2023-03-01T06:47:08;24.13;;;13.23;;
50495;SDS011;38806;51.554;5.704;2023-03-01T06:49:08;19.45;;;13.85;;
50495;SDS011;38806;51.554;5.704;2023-03-01T06:51:09;22.80;;;14.30;;
50495;SDS011;38806;51.554;5.704;2023-03-01T06:53:09;30.57;;;15.13;;
50495;SDS011;38806;51.554;5.704;2023-03-01T06:55:10;24.73;;;14.80;;
50495;SDS011;38806;51.554;5.704;2023-03-01T06:57:11;25.27;;;13.67;;
50495;SDS011;38806;51.554;5.704;2023-03-01T06:59:11;27.27;;;15.25;;
50495;SDS011;38806;51.554;5.704;2023-03-01T07:01:11;34.40;;;18.13;;
50495;SDS011;38806;51.554;5.704;2023-03-01T07:03:11;34.97;;;18.00;;
50495;SDS011;38806;51.554;5.704;2023-03-01T07:05:11;37.80;;;18.23;;
50495;SDS011;38806;51.554;5.704;2023-03-01T07:07:12;27.00;;;15.02;;
50495;SDS011;38806;51.554;5.704;2023-03-01T07:09:12;26.52;;;16.45;;
50495;SDS011;38806;51.554;5.704;2023-03-01T07:11:12;32.10;;;17.05;;
50495;SDS011;38806;51.554;5.704;2023-03-01T07:13:12;36.55;;;18.38;;
50495;SDS011;38806;51.554;5.704;2023-03-01T07:15:13;31.17;;;16.10;;
50495;SDS011;38806;51.554;5.704;2023-03-01T07:17:14;26.75;;;15.95;;
50495;SDS011;38806;51.554;5.704;2023-03-01T07:19:15;29.77;;;16.23;;
50495;SDS011;38806;51.554;5.704;2023-03-01T07:21:15;26.73;;;16.70;;
50495;SDS011;38806;51.554;5.704;2023-03-01T07:23:16;29.23;;;15.52;;
50495;SDS011;38806;51.554;5.704;2023-03-01T07:25:16;31.10;;;18.33;;
50495;SDS011;38806;51.554;5.704;2023-03-01T07:27:16;27.35;;;15.15;;
50495;SDS011;38806;51.554;5.704;2023-03-01T07:29:17;24.05;;;14.68;;
50495;SDS011;38806;51.554;5.704;2023-03-01T07:31:17;22.23;;;14.10;;
50495;SDS011;38806;51.554;5.704;2023-03-01T07:33:18;29.50;;;16.02;;
50495;SDS011;38806;51.554;5.704;2023-03-01T07:35:18;22.48;;;15.07;;
50495;SDS011;38806;51.554;5.704;2023-03-01T07:37:18;23.63;;;14.40;;
50495;SDS011;38806;51.554;5.704;2023-03-01T07:39:18;23.48;;;14.50;;
50495;SDS011;38806;51.554;5.704;2023-03-01T07:41:18;27.95;;;14.57;;
50495;SDS011;38806;51.554;5.704;2023-03-01T07:43:18;24.10;;;13.68;;
50495;SDS011;38806;51.554;5.704;2023-03-01T07:45:20;24.10;;;13.82;;
50495;SDS011;38806;51.554;5.704;2023-03-01T07:47:20;28.75;;;15.82;;
50495;SDS011;38806;51.554;5.704;2023-03-01T07:49:20;24.77;;;14.18;;
50495;SDS011;38806;51.554;5.704;2023-03-01T07:51:20;26.10;;;15.93;;
50495;SDS011;38806;51.554;5.704;2023-03-01T07:53:21;21.55;;;13.50;;
50495;SDS011;38806;51.554;5.704;2023-03-01T07:55:21;26.27;;;16.80;;
50495;SDS011;38806;51.554;5.704;2023-03-01T07:57:21;23.50;;;15.48;;
50495;SDS011;38806;51.554;5.704;2023-03-01T07:59:21;30.80;;;17.88;;
50495;SDS011;38806;51.554;5.704;2023-03-01T08:01:23;35.60;;;16.50;;
50495;SDS011;38806;51.554;5.704;2023-03-01T08:03:23;26.05;;;15.23;;
50495;SDS011;38806;51.554;5.704;2023-03-01T08:05:23;24.15;;;13.48;;
50495;SDS011;38806;51.554;5.704;2023-03-01T08:07:24;22.42;;;14.32;;
50495;SDS011;38806;51.554;5.704;2023-03-01T08:09:24;22.17;;;14.30;;
50495;SDS011;38806;51.554;5.704;2023-03-01T08:11:24;25.10;;;13.32;;
50495;SDS011;38806;51.554;5.704;2023-03-01T08:13:25;26.85;;;16.00;;
50495;SDS011;38806;51.554;5.704;2023-03-01T08:15:25;25.13;;;13.60;;
50495;SDS011;38806;51.554;5.704;2023-03-01T08:17:25;23.10;;;12.85;;
50495;SDS011;38806;51.554;5.704;2023-03-01T08:19:25;23.05;;;12.45;;
50495;SDS011;38806;51.554;5.704;2023-03-01T08:21:28;25.13;;;14.10;;
50495;SDS011;38806;51.554;5.704;2023-03-01T08:23:28;25.13;;;13.30;;
50495;SDS011;38806;51.554;5.704;2023-03-01T08:25:29;27.73;;;15.95;;
50495;SDS011;38806;51.554;5.704;2023-03-01T08:27:30;22.88;;;12.68;;
50495;SDS011;38806;51.554;5.704;2023-03-01T08:29:30;19.35;;;12.07;;
50495;SDS011;38806;51.554;5.704;2023-03-01T08:31:33;23.92;;;11.65;;
50495;SDS011;38806;51.554;5.704;2023-03-01T08:33:35;21.42;;;13.73;;
50495;SDS011;38806;51.554;5.704;2023-03-01T08:35:35;20.13;;;12.57;;
50495;SDS011;38806;51.554;5.704;2023-03-01T08:37:35;22.73;;;12.40;;
50495;SDS011;38806;51.554;5.704;2023-03-01T08:39:35;20.25;;;12.52;;
50495;SDS011;38806;51.554;5.704;2023-03-01T08:41:36;13.10;;;9.23;;
50495;SDS011;38806;51.554;5.704;2023-03-01T08:43:36;21.70;;;9.30;;
50495;SDS011;38806;51.554;5.704;2023-03-01T08:45:36;16.02;;;9.93;;
50495;SDS011;38806;51.554;5.704;2023-03-01T08:47:36;15.63;;;7.95;;
50495;SDS011;38806;51.554;5.704;2023-03-01T08:49:36;16.23;;;8.48;;
50495;SDS011;38806;51.554;5.704;2023-03-01T08:51:37;12.10;;;7.97;;
50495;SDS011;38806;51.554;5.704;2023-03-01T08:53:37;13.20;;;7.20;;
50495;SDS011;38806;51.554;5.704;2023-03-01T08:55:37;14.45;;;7.88;;
50495;SDS011;38806;51.554;5.704;2023-03-01T08:57:38;14.73;;;9.05;;
50495;SDS011;38806;51.554;5.704;2023-03-01T08:59:38;12.07;;;7.25;;
50495;SDS011;38806;51.554;5.704;2023-03-01T09:01:38;17.52;;;7.68;;
50495;SDS011;38806;51.554;5.704;2023-03-01T09:03:40;9.73;;;6.30;;
50495;SDS011;38806;51.554;5.704;2023-03-01T09:05:40;12.15;;;7.20;;
50495;SDS011;38806;51.554;5.704;2023-03-01T09:07:40;14.88;;;8.80;;
50495;SDS011;38806;51.554;5.704;2023-03-01T09:09:40;9.40;;;6.88;;
50495;SDS011;38806;51.554;5.704;2023-03-01T09:11:41;12.63;;;6.63;;
50495;SDS011;38806;51.554;5.704;2023-03-01T09:13:41;12.50;;;8.52;;
50495;SDS011;38806;51.554;5.704;2023-03-01T09:15:41;11.02;;;8.20;;
50495;SDS011;38806;51.554;5.704;2023-03-01T09:17:41;12.50;;;8.18;;
50495;SDS011;38806;51.554;5.704;2023-03-01T09:19:41;12.90;;;8.82;;
50495;SDS011;38806;51.554;5.704;2023-03-01T09:21:42;12.30;;;8.07;;
50495;SDS011;38806;51.554;5.704;2023-03-01T09:23:51;9.95;;;6.82;;
50495;SDS011;38806;51.554;5.704;2023-03-01T09:25:52;11.53;;;8.03;;
50495;SDS011;38806;51.554;5.704;2023-03-01T09:27:52;10.90;;;6.47;;
50495;SDS011;38806;51.554;5.704;2023-03-01T09:29:53;10.15;;;7.38;;
50495;SDS011;38806;51.554;5.704;2023-03-01T09:31:53;13.10;;;8.57;;
50495;SDS011;38806;51.554;5.704;2023-03-01T09:33:55;10.20;;;7.30;;
50495;SDS011;38806;51.554;5.704;2023-03-01T09:35:56;11.20;;;7.38;;
50495;SDS011;38806;51.554;5.704;2023-03-01T09:37:56;10.88;;;8.02;;
50495;SDS011;38806;51.554;5.704;2023-03-01T09:39:56;8.60;;;7.10;;
50495;SDS011;38806;51.554;5.704;2023-03-01T09:42:00;9.82;;;7.20;;
50495;SDS011;38806;51.554;5.704;2023-03-01T09:44:10;10.00;;;7.28;;
50495;SDS011;38806;51.554;5.704;2023-03-01T09:46:13;11.48;;;7.80;;
50495;SDS011;38806;51.554;5.704;2023-03-01T09:48:18;10.88;;;7.63;;
50495;SDS011;38806;51.554;5.704;2023-03-01T09:50:19;12.18;;;8.00;;
50495;SDS011;38806;51.554;5.704;2023-03-01T09:54:25;13.23;;;7.85;;
50495;SDS011;38806;51.554;5.704;2023-03-01T09:58:45;11.50;;;6.93;;
50495;SDS011;38806;51.554;5.704;2023-03-01T10:00:48;11.25;;;8.07;;
50495;SDS011;38806;51.554;5.704;2023-03-01T10:04:50;14.00;;;8.30;;
50495;SDS011;38806;51.554;5.704;2023-03-01T10:09:07;11.25;;;7.75;;
50495;SDS011;38806;51.554;5.704;2023-03-01T10:11:30;13.55;;;9.23;;
50495;SDS011;38806;51.554;5.704;2023-03-01T10:13:43;12.98;;;8.95;;
50495;SDS011;38806;51.554;5.704;2023-03-01T10:15:50;13.40;;;8.43;;
50495;SDS011;38806;51.554;5.704;2023-03-01T10:17:55;12.05;;;8.25;;
50495;SDS011;38806;51.554;5.704;2023-03-01T10:19:58;12.77;;;9.43;;
50495;SDS011;38806;51.554;5.704;2023-03-01T10:24:16;12.82;;;9.00;;
50495;SDS011;38806;51.554;5.704;2023-03-01T10:26:28;11.55;;;8.80;;
50495;SDS011;38806;51.554;5.704;2023-03-01T10:28:33;11.07;;;7.55;;
50495;SDS011;38806;51.554;5.704;2023-03-01T10:30:35;14.05;;;8.82;;
50495;SDS011;38806;51.554;5.704;2023-03-01T10:32:39;12.55;;;8.95;;
50495;SDS011;38806;51.554;5.704;2023-03-01T10:34:39;12.52;;;9.02;;
50495;SDS011;38806;51.554;5.704;2023-03-01T10:36:40;13.00;;;8.95;;
50495;SDS011;38806;51.554;5.704;2023-03-01T10:38:52;13.30;;;8.50;;
50495;SDS011;38806;51.554;5.704;2023-03-01T10:42:54;12.93;;;7.73;;
50495;SDS011;38806;51.554;5.704;2023-03-01T10:44:57;12.20;;;8.25;;
50495;SDS011;38806;51.554;5.704;2023-03-01T10:47:00;12.43;;;7.85;;
50495;SDS011;38806;51.554;5.704;2023-03-01T10:51:07;13.73;;;7.93;;
50495;SDS011;38806;51.554;5.704;2023-03-01T10:53:16;15.95;;;7.75;;
50495;SDS011;38806;51.554;5.704;2023-03-01T10:55:35;12.70;;;8.02;;
50495;SDS011;38806;51.554;5.704;2023-03-01T10:57:37;11.98;;;7.45;;
50495;SDS011;38806;51.554;5.704;2023-03-01T10:59:38;9.13;;;7.57;;
50495;SDS011;38806;51.554;5.704;2023-03-01T11:01:38;12.10;;;8.77;;
50495;SDS011;38806;51.554;5.704;2023-03-01T11:03:39;9.47;;;7.70;;
50495;SDS011;38806;51.554;5.704;2023-03-01T11:07:55;9.88;;;8.10;;
50495;SDS011;38806;51.554;5.704;2023-03-01T11:09:56;11.27;;;7.95;;
50495;SDS011;38806;51.554;5.704;2023-03-01T11:11:57;10.27;;;7.05;;
50495;SDS011;38806;51.554;5.704;2023-03-01T11:14:12;8.70;;;6.28;;
50495;SDS011;38806;51.554;5.704;2023-03-01T11:16:13;9.48;;;6.57;;
50495;SDS011;38806;51.554;5.704;2023-03-01T11:18:20;10.25;;;7.60;;
50495;SDS011;38806;51.554;5.704;2023-03-01T11:20:24;12.80;;;8.35;;
50495;SDS011;38806;51.554;5.704;2023-03-01T11:22:26;11.48;;;7.93;;
50495;SDS011;38806;51.554;5.704;2023-03-01T11:24:29;14.65;;;8.15;;
50495;SDS011;38806;51.554;5.704;2023-03-01T11:26:30;9.55;;;6.65;;
50495;SDS011;38806;51.554;5.704;2023-03-01T11:28:30;9.75;;;7.57;;
50495;SDS011;38806;51.554;5.704;2023-03-01T11:30:36;10.18;;;7.88;;
50495;SDS011;38806;51.554;5.704;2023-03-01T11:32:40;11.00;;;6.63;;
50495;SDS011;38806;51.554;5.704;2023-03-01T11:34:48;11.05;;;9.00;;
50495;SDS011;38806;51.554;5.704;2023-03-01T11:36:51;8.63;;;7.28;;
50495;SDS011;38806;51.554;5.704;2023-03-01T11:38:53;9.30;;;6.90;;
50495;SDS011;38806;51.554;5.704;2023-03-01T11:41:14;12.15;;;7.35;;
50495;SDS011;38806;51.554;5.704;2023-03-01T11:43:16;11.15;;;7.63;;
50495;SDS011;38806;51.554;5.704;2023-03-01T11:45:19;12.25;;;8.45;;
50495;SDS011;38806;51.554;5.704;2023-03-01T11:54:13;9.52;;;6.45;;
50495;SDS011;38806;51.554;5.704;2023-03-01T11:58:37;11.20;;;6.70;;
50495;SDS011;38806;51.554;5.704;2023-03-01T12:07:42;8.90;;;6.70;;
50495;SDS011;38806;51.554;5.704;2023-03-01T12:10:47;10.73;;;6.80;;
50495;SDS011;38806;51.554;5.704;2023-03-01T12:14:26;11.77;;;7.80;;
50495;SDS011;38806;51.554;5.704;2023-03-01T12:16:33;9.70;;;7.53;;
50495;SDS011;38806;51.554;5.704;2023-03-01T12:29:24;11.02;;;7.20;;
50495;SDS011;38806;51.554;5.704;2023-03-01T12:50:49;10.10;;;7.05;;
50495;SDS011;38806;51.554;5.704;2023-03-01T12:52:52;8.70;;;6.18;;
50495;SDS011;38806;51.554;5.704;2023-03-01T12:54:53;9.25;;;6.53;;
50495;SDS011;38806;51.554;5.704;2023-03-01T12:56:54;10.88;;;6.75;;
50495;SDS011;38806;51.554;5.704;2023-03-01T12:59:03;10.35;;;6.05;;
50495;SDS011;38806;51.554;5.704;2023-03-01T13:03:31;10.23;;;7.38;;
50495;SDS011;38806;51.554;5.704;2023-03-01T13:05:39;9.73;;;6.65;;
50495;SDS011;38806;51.554;5.704;2023-03-01T13:07:44;10.02;;;6.90;;
50495;SDS011;38806;51.554;5.704;2023-03-01T13:11:50;9.53;;;6.27;;
50495;SDS011;38806;51.554;5.704;2023-03-01T13:13:50;10.97;;;6.57;;
50495;SDS011;38806;51.554;5.704;2023-03-01T13:15:51;9.70;;;6.25;;
50495;SDS011;38806;51.554;5.704;2023-03-01T13:17:53;10.32;;;6.18;;
50495;SDS011;38806;51.554;5.704;2023-03-01T13:19:57;10.60;;;6.88;;
50495;SDS011;38806;51.554;5.704;2023-03-01T13:21:57;9.88;;;6.80;;